Time;durP1;ratioP1;P1;durP2;ratioP2;P2;SDS_P1;SDS_P2;PMS_P1;PMS_P2;Temp;Humidity;BMP_temperature;BMP_pressure;BME280_temperature;BME280_humidity;BME280_pressure;Samples;Min_cycle;Max_cycle;Signal;HPM_P1;HPM_P2
2020/12/12 00:00:36;;;;;;;;;;;;;;;-1.13;100.00;90910.97;1063528;55;20170;-84
2020/12/12 00:01:36;;;;;;;;;;;;;;;-1.10;100.00;90907.56;1063589;55;20239;-84
2020/12/12 00:02:37;;;;;;;;;;;;;;;-1.11;100.00;90916.56;1065648;55;20594;-84
2020/12/12 00:03:37;;;;;;;;;;;;;;;-1.08;100.00;90911.28;1063564;55;20173;-83
2020/12/12 00:04:37;;;;;;;;;;;;;;;-1.13;100.00;90911.72;1063643;55;20274;-85
2020/12/12 00:05:39;;;;;;;;;;;;;;;-1.09;100.00;90912.41;1065779;55;20168;-85
2020/12/12 00:06:39;;;;;;;;;;;;;;;-1.11;100.00;90916.56;1065714;55;20188;-84
2020/12/12 00:07:39;;;;;;;;;;;;;;;-1.10;100.00;90908.31;1067973;55;20254;-85
2020/12/12 00:08:40;;;;;;;;;;;;;;;-1.14;100.00;90915.50;1065773;55;20158;-84
2020/12/12 00:09:40;;;;;;;;;;;;;;;-1.12;100.00;90918.44;1061460;56;20236;-84
2020/12/12 00:10:41;;;;;;;;;;;;;;;-1.15;100.00;90926.34;1065690;55;20656;-84
2020/12/12 00:11:41;;;;;;;;;;;;;;;-1.11;100.00;90922.53;1065642;55;20201;-85
2020/12/12 00:12:42;;;;;;;;;;;;;;;-1.09;100.00;90930.75;1065689;55;20180;-83
2020/12/12 00:13:42;;;;;;;;;;;;;;;-1.12;100.00;90933.44;1067946;55;20193;-85
2020/12/12 00:14:43;;;;;;;;;;;;;;;-1.13;100.00;90924.81;1065762;55;20154;-84
2020/12/12 00:15:44;;;;;;;;;;;;;;;-1.06;100.00;90924.72;1063544;55;20181;-85
2020/12/12 00:16:44;;;;;;;;;;;;;;;-1.11;100.00;90927.03;1065691;55;20180;-84
2020/12/12 00:17:45;;;;;;;;;;;;;;;-1.11;100.00;90927.78;1067834;55;20157;-83
2020/12/12 00:18:45;;;;;;;;;;;;;;;-1.14;100.00;90927.81;1065595;55;20609;-84
2020/12/12 00:19:46;;;;;;;;;;;;;;;-1.11;100.00;90922.53;1067828;55;20188;-84
2020/12/12 00:20:46;;;;;;;;;;;;;;;-1.13;100.00;90926.72;1069948;55;20265;-85
2020/12/12 00:21:56;;;;;;;;;;;;;;;-1.10;100.00;90923.28;1065825;55;20578;-84
2020/12/12 00:22:56;;;;;;;;;;;;;;;-1.11;100.00;90922.53;1063911;55;20233;-83
2020/12/12 00:23:56;;;;;;;;;;;;;;;-1.15;100.00;90915.87;1063557;55;20176;-84
2020/12/12 00:24:58;;;;;;;;;;;;;;;-1.19;100.00;90929.00;1065782;55;20205;-84
2020/12/12 00:25:58;;;;;;;;;;;;;;;-1.19;100.00;90918.53;1065743;55;20192;-84
2020/12/12 00:26:59;;;;;;;;;;;;;;;-1.11;100.00;90919.19;1063776;55;20165;-84
2020/12/12 00:27:59;;;;;;;;;;;;;;;-1.15;100.00;90924.47;1063695;55;20181;-83
2020/12/12 00:29:00;;;;;;;;;;;;;;;-1.21;100.00;90926.06;1065800;55;20266;-85
2020/12/12 00:30:00;;;;;;;;;;;;;;;-1.16;100.00;90922.25;1065832;55;20180;-85
2020/12/12 00:31:01;;;;;;;;;;;;;;;-1.23;100.00;90917.09;1065800;55;20165;-84
2020/12/12 00:32:01;;;;;;;;;;;;;;;-1.20;100.00;90917.06;1063671;55;20158;-85
2020/12/12 00:33:02;;;;;;;;;;;;;;;-1.18;100.00;90922.66;1065684;55;20672;-83
2020/12/12 00:34:02;;;;;;;;;;;;;;;-1.16;100.00;90912.50;1063574;55;20672;-84
2020/12/12 00:35:03;;;;;;;;;;;;;;;-1.15;100.00;90913.25;1068107;55;20179;-84
2020/12/12 00:36:04;;;;;;;;;;;;;;;-1.19;100.00;90917.78;1065833;55;20178;-83
2020/12/12 00:37:04;;;;;;;;;;;;;;;-1.20;100.00;90919.69;1061476;56;20180;-84
2020/12/12 00:38:06;;;;;;;;;;;;;;;-1.16;100.00;90922.25;1063711;55;20146;-86
2020/12/12 00:39:06;;;;;;;;;;;;;;;-1.16;100.00;90917.00;1063512;55;20177;-84
2020/12/12 00:40:07;;;;;;;;;;;;;;;-1.12;100.00;90918.44;1061581;56;20578;-84
2020/12/12 00:41:07;;;;;;;;;;;;;;;-1.12;100.00;90921.06;1061577;56;20284;-84
2020/12/12 00:42:08;;;;;;;;;;;;;;;-1.10;100.00;90916.19;1061454;56;21149;-83
2020/12/12 00:43:08;;;;;;;;;;;;;;;-1.12;100.00;90910.56;1061605;56;20158;-85
2020/12/12 00:44:09;;;;;;;;;;;;;;;-1.05;100.00;90915.00;1063774;55;20259;-86
2020/12/12 00:45:09;;;;;;;;;;;;;;;-1.13;100.00;90910.97;1063603;55;20145;-85
2020/12/12 00:46:10;;;;;;;;;;;;;;;-1.11;100.00;90914.69;1065870;55;20153;-85
2020/12/12 00:47:11;;;;;;;;;;;;;;;-1.10;100.00;90907.56;1065716;55;20158;-84
2020/12/12 00:48:11;;;;;;;;;;;;;;;-1.09;100.00;90907.16;1063672;55;20256;-86
2020/12/12 00:49:12;;;;;;;;;;;;;;;-1.11;100.00;90900.84;1063537;55;20154;-84
2020/12/12 00:50:12;;;;;;;;;;;;;;;-0.98;100.00;90911.50;1061555;55;20162;-85
2020/12/12 00:51:13;;;;;;;;;;;;;;;-0.98;100.00;90914.13;1063574;55;20154;-85
2020/12/12 00:52:14;;;;;;;;;;;;;;;-1.06;100.00;90908.25;1065827;55;20609;-84
2020/12/12 00:53:15;;;;;;;;;;;;;;;-1.05;100.00;90902.63;1065664;55;20149;-83
2020/12/12 00:54:15;;;;;;;;;;;;;;;-1.04;100.00;90913.84;1063542;55;20161;-84
2020/12/12 00:55:16;;;;;;;;;;;;;;;-1.00;100.00;90911.19;1065834;55;20165;-84
2020/12/12 00:56:16;;;;;;;;;;;;;;;-1.04;100.00;90919.81;1065796;55;20196;-83
2020/12/12 00:57:17;;;;;;;;;;;;;;;-1.05;100.00;90913.09;1065538;55;20618;-85
2020/12/12 00:58:18;;;;;;;;;;;;;;;-1.05;100.00;90904.50;1067978;55;20207;-84
2020/12/12 00:59:18;;;;;;;;;;;;;;;-1.07;100.00;90912.75;1067869;55;20184;-83
2020/12/12 01:00:19;;;;;;;;;;;;;;;-0.99;100.00;90925.75;1065763;55;20169;-85
2020/12/12 01:01:21;;;;;;;;;;;;;;;-1.04;100.00;90919.81;1065749;55;20149;-84
2020/12/12 01:02:21;;;;;;;;;;;;;;;-1.01;100.00;90918.28;1065861;55;20562;-84
2020/12/12 01:03:22;;;;;;;;;;;;;;;-1.00;100.00;90914.53;1063519;55;20158;-86
2020/12/12 01:04:22;;;;;;;;;;;;;;;-0.95;100.00;90921.22;1061328;56;20178;-84
2020/12/12 01:05:22;;;;;;;;;;;;;;;-0.91;100.00;90914.78;1063446;55;20165;-83
2020/12/12 01:06:23;;;;;;;;;;;;;;;-1.00;100.00;90914.53;1061294;56;20189;-85
2020/12/12 01:07:23;;;;;;;;;;;;;;;-1.05;100.00;90915.72;1061250;56;20154;-83
2020/12/12 01:08:24;;;;;;;;;;;;;;;-1.02;100.00;90916.78;1063450;55;20177;-84
2020/12/12 01:09:24;;;;;;;;;;;;;;;-1.03;100.00;90912.69;1065609;55;20186;-84
2020/12/12 01:10:25;;;;;;;;;;;;;;;-1.02;100.00;90911.56;1065520;55;20157;-82
2020/12/12 01:11:26;;;;;;;;;;;;;;;-0.96;100.00;90920.47;1067679;55;20149;-84
2020/12/12 01:12:26;;;;;;;;;;;;;;;-0.90;100.00;90923.37;1067620;55;20172;-84
2020/12/12 01:13:27;;;;;;;;;;;;;;;-0.97;100.00;90918.22;1067653;55;20649;-83
2020/12/12 01:14:27;;;;;;;;;;;;;;;-1.05;100.00;90905.25;1065694;55;20193;-83
2020/12/12 01:15:28;;;;;;;;;;;;;;;-1.01;100.00;90910.41;1065641;55;20189;-84
2020/12/12 01:16:29;;;;;;;;;;;;;;;-0.96;100.00;90906.63;1065741;55;20165;-84
2020/12/12 01:17:29;;;;;;;;;;;;;;;-0.94;100.00;90906.97;1063600;55;20256;-84
2020/12/12 01:18:29;;;;;;;;;;;;;;;-1.00;100.00;90919.03;1061349;56;20230;-83
2020/12/12 01:19:30;;;;;;;;;;;;;;;-1.04;100.00;90919.09;1063426;55;20150;-82
2020/12/12 01:20:30;;;;;;;;;;;;;;;-1.02;100.00;90919.41;1065669;55;20150;-84
2020/12/12 01:21:31;;;;;;;;;;;;;;;-1.06;100.00;90921.34;1063408;55;20927;-86
2020/12/12 01:22:32;;;;;;;;;;;;;;;-1.05;100.00;90926.22;1065663;55;20577;-85
2020/12/12 01:23:32;;;;;;;;;;;;;;;-1.05;100.00;90923.59;1067765;55;20188;-84
2020/12/12 01:24:32;;;;;;;;;;;;;;;-0.97;100.00;90928.72;1063546;56;20154;-84
2020/12/12 01:25:37;;;;;;;;;;;;;;;-1.03;100.00;90925.81;1063521;56;20162;-83
2020/12/12 01:26:38;;;;;;;;;;;;;;;-1.04;100.00;90929.56;1065874;55;20180;-83
2020/12/12 01:27:38;;;;;;;;;;;;;;;-1.07;100.00;90917.25;1065812;55;20173;-84
2020/12/12 01:28:39;;;;;;;;;;;;;;;-1.01;100.00;90923.53;1063602;56;20222;-83
2020/12/12 01:29:40;;;;;;;;;;;;;;;-0.98;100.00;90927.25;1063541;55;20693;-84
2020/12/12 01:30:40;;;;;;;;;;;;;;;-1.00;100.00;90925.03;1065706;55;20253;-84
2020/12/12 01:31:41;;;;;;;;;;;;;;;-1.02;100.00;90925.41;1063594;56;20153;-84
2020/12/12 01:32:41;;;;;;;;;;;;;;;-0.96;100.00;90930.22;1065725;55;20180;-84
2020/12/12 01:33:43;;;;;;;;;;;;;;;-0.97;100.00;90926.09;1065571;55;20154;-83
2020/12/12 01:34:43;;;;;;;;;;;;;;;-0.91;100.00;90922.63;1063460;55;20249;-84
2020/12/12 01:35:44;;;;;;;;;;;;;;;-0.89;100.00;90920.34;1063456;56;20177;-85
2020/12/12 01:36:46;;;;;;;;;;;;;;;-0.91;100.00;90927.16;1069802;55;20184;-84
2020/12/12 01:37:47;;;;;;;;;;;;;;;-0.95;100.00;90926.44;1067948;55;20166;-83
2020/12/12 01:38:48;;;;;;;;;;;;;;;-0.92;100.00;90930.87;1065722;55;20189;-84
2020/12/12 01:39:48;;;;;;;;;;;;;;;-1.02;100.00;90928.03;1063454;56;20154;-83
2020/12/12 01:40:52;;;;;;;;;;;;;;;-1.03;100.00;90923.94;1065637;55;20153;-84
2020/12/12 01:41:56;;;;;;;;;;;;;;;-0.95;100.00;90924.56;1065701;55;20185;-83
2020/12/12 01:42:56;;;;;;;;;;;;;;;-1.00;100.00;90926.91;1065436;55;20630;-84
2020/12/12 01:43:57;;;;;;;;;;;;;;;-0.95;100.00;90921.22;1065427;55;20165;-83
2020/12/12 01:44:57;;;;;;;;;;;;;;;-0.94;100.00;90926.03;1063629;56;20209;-84
2020/12/12 01:45:58;;;;;;;;;;;;;;;-0.95;100.00;90923.84;1063416;56;20153;-85
2020/12/12 01:46:59;;;;;;;;;;;;;;;-0.97;100.00;90926.84;1063403;56;20642;-84
2020/12/12 01:48:00;;;;;;;;;;;;;;;-0.96;100.00;90928.34;1063565;55;20264;-83
2020/12/12 01:49:01;;;;;;;;;;;;;;;-0.96;100.00;90925.72;1063492;56;20176;-84
2020/12/12 01:50:05;;;;;;;;;;;;;;;-0.95;100.00;90929.06;1065448;55;20161;-83
2020/12/12 01:51:06;;;;;;;;;;;;;;;-0.98;100.00;90927.25;1065550;55;20154;-84
2020/12/12 01:52:06;;;;;;;;;;;;;;;-0.95;100.00;90929.81;1065552;55;20200;-85
2020/12/12 01:53:07;;;;;;;;;;;;;;;-0.95;100.00;90937.69;1063391;56;20279;-83
2020/12/12 01:54:08;;;;;;;;;;;;;;;-0.95;100.00;90934.31;1063539;55;20177;-85
2020/12/12 01:55:08;;;;;;;;;;;;;;;-0.90;100.00;90937.22;1067778;55;20176;-84
2020/12/12 01:56:09;;;;;;;;;;;;;;;-0.94;100.00;90938.41;1067883;55;20161;-83
2020/12/12 01:57:12;;;;;;;;;;;;;;;-0.95;100.00;90931.69;1067881;55;20157;-86
2020/12/12 01:58:13;;;;;;;;;;;;;;;-0.95;100.00;90932.44;1065698;55;20165;-85
2020/12/12 01:59:14;;;;;;;;;;;;;;;-0.92;100.00;90936.13;1067865;55;20601;-84
2020/12/12 02:00:15;;;;;;;;;;;;;;;-0.84;100.00;90937.50;1069982;55;20176;-84
2020/12/12 02:01:16;;;;;;;;;;;;;;;-0.91;100.00;90943.63;1067975;55;20642;-84
2020/12/12 02:02:17;;;;;;;;;;;;;;;-0.93;100.00;90932.75;1065700;55;20157;-85
2020/12/12 02:03:20;;;;;;;;;;;;;;;-0.94;100.00;90935.78;1063900;55;20188;-85
2020/12/12 02:04:22;;;;;;;;;;;;;;;-0.91;100.00;90935.00;1063744;55;20162;-85
2020/12/12 02:05:38;;;;;;;;;;;;;;;-0.89;100.00;90936.09;1065599;55;20184;-84
2020/12/12 02:06:38;;;;;;;;;;;;;;;-0.89;100.00;90935.34;1064215;55;20170;-85
2020/12/12 02:07:39;;;;;;;;;;;;;;;-0.89;100.00;90933.47;1063506;55;20153;-86
2020/12/12 02:08:40;;;;;;;;;;;;;;;-0.87;100.00;90930.47;1061573;56;20248;-84
2020/12/12 02:09:40;;;;;;;;;;;;;;;-0.78;100.00;90928.81;1066263;55;20625;-84
2020/12/12 02:10:42;;;;;;;;;;;;;;;-0.82;100.00;90938.59;1068343;55;20160;-84
2020/12/12 02:11:43;;;;;;;;;;;;;;;-0.76;100.00;90929.13;1066193;55;20641;-84
2020/12/12 02:12:43;;;;;;;;;;;;;;;-0.71;100.00;90927.94;1066188;55;20162;-85
2020/12/12 02:13:47;;;;;;;;;;;;;;;-0.73;100.00;90929.50;1068368;55;20253;-84
2020/12/12 02:14:47;;;;;;;;;;;;;;;-0.72;100.00;90923.84;1068458;55;20193;-85
2020/12/12 02:15:48;;;;;;;;;;;;;;;-0.79;100.00;90929.94;1068418;55;20192;-85
2020/12/12 02:16:52;;;;;;;;;;;;;;;-0.82;100.00;90924.75;1068337;55;20671;-85
2020/12/12 02:17:53;;;;;;;;;;;;;;;-0.81;100.00;90926.97;1066233;55;20183;-84
2020/12/12 02:18:54;;;;;;;;;;;;;;;-0.79;100.00;90929.94;1066159;55;20161;-85
2020/12/12 02:19:55;;;;;;;;;;;;;;;-0.79;100.00;90926.56;1065910;55;20208;-83
2020/12/12 02:20:57;;;;;;;;;;;;;;;-0.81;100.00;90926.97;1066009;55;20188;-85
2020/12/12 02:21:58;;;;;;;;;;;;;;;-0.78;100.00;90928.81;1068455;55;20216;-86
2020/12/12 02:22:59;;;;;;;;;;;;;;;-0.79;100.00;90922.09;1066013;55;20650;-84
2020/12/12 02:23:59;;;;;;;;;;;;;;;-0.77;100.00;90930.28;1064027;55;20189;-83
2020/12/12 02:25:00;;;;;;;;;;;;;;;-0.73;100.00;90932.84;1066187;55;20177;-84
2020/12/12 02:26:01;;;;;;;;;;;;;;;-0.76;100.00;90936.28;1066062;55;20185;-84
2020/12/12 02:27:06;;;;;;;;;;;;;;;-0.76;100.00;90936.28;1063862;55;20157;-84
2020/12/12 02:28:11;;;;;;;;;;;;;;;-0.76;100.00;90929.13;1066236;55;20185;-85
2020/12/12 02:29:13;;;;;;;;;;;;;;;-0.75;100.00;90924.63;1066269;55;20170;-83
2020/12/12 02:30:14;;;;;;;;;;;;;;;-0.62;100.00;90922.19;1065991;55;20239;-84
2020/12/12 02:31:15;;;;;;;;;;;;;;;-0.69;100.00;90927.56;1066030;55;20177;-84
2020/12/12 02:32:15;;;;;;;;;;;;;;;-0.69;100.00;90928.31;1068168;55;20176;-84
2020/12/12 02:33:17;;;;;;;;;;;;;;;-0.71;100.00;90927.94;1066130;55;20165;-84
2020/12/12 02:34:17;;;;;;;;;;;;;;;-0.76;100.00;90923.16;1063979;55;20240;-84
2020/12/12 02:35:18;;;;;;;;;;;;;;;-0.66;100.00;90922.28;1066085;55;20173;-84
2020/12/12 02:36:18;;;;;;;;;;;;;;;-0.70;100.00;90929.44;1068311;55;20641;-85
2020/12/12 02:37:19;;;;;;;;;;;;;;;-0.73;100.00;90927.62;1068329;55;20165;-84
2020/12/12 02:38:20;;;;;;;;;;;;;;;-0.70;100.00;90926.81;1063864;55;20157;-85
2020/12/12 02:39:20;;;;;;;;;;;;;;;-0.73;100.00;90924.25;1064141;55;20162;-85
2020/12/12 02:40:20;;;;;;;;;;;;;;;-0.74;100.00;90926.13;1064024;55;20243;-85
2020/12/12 02:41:21;;;;;;;;;;;;;;;-0.70;100.00;90921.56;1063963;55;20154;-84
2020/12/12 02:42:21;;;;;;;;;;;;;;;-0.64;100.00;90919.97;1066293;55;20169;-83
2020/12/12 02:43:22;;;;;;;;;;;;;;;-0.61;100.00;90918.44;1064010;55;20255;-84
2020/12/12 02:44:22;;;;;;;;;;;;;;;-0.64;100.00;90914.72;1061897;56;20591;-84
2020/12/12 02:45:23;;;;;;;;;;;;;;;-0.70;100.00;90915.56;1064016;55;20631;-84
2020/12/12 02:46:24;;;;;;;;;;;;;;;-0.73;100.00;90911.88;1061727;55;20249;-84
2020/12/12 02:47:25;;;;;;;;;;;;;;;-0.65;100.00;90923.00;1061407;56;20271;-85
2020/12/12 02:48:25;;;;;;;;;;;;;;;-0.73;100.00;90914.50;1065973;55;20234;-84
2020/12/12 02:49:25;;;;;;;;;;;;;;;-0.68;100.00;90921.91;1063607;55;20181;-85
2020/12/12 02:50:27;;;;;;;;;;;;;;;-0.66;100.00;90921.50;1065993;55;20168;-84
2020/12/12 02:51:27;;;;;;;;;;;;;;;-0.63;100.00;90920.72;1065938;55;20185;-86
2020/12/12 02:52:28;;;;;;;;;;;;;;;-0.66;100.00;90924.13;1063827;55;20571;-83
2020/12/12 02:53:29;;;;;;;;;;;;;;;-0.65;100.00;90920.38;1068192;55;20176;-84
2020/12/12 02:54:30;;;;;;;;;;;;;;;-0.63;100.00;90925.97;1066049;55;20189;-84
2020/12/12 02:55:30;;;;;;;;;;;;;;;-0.65;100.00;90918.50;1063748;55;20606;-83
2020/12/12 02:56:31;;;;;;;;;;;;;;;-0.57;100.00;90919.09;1063882;55;20192;-84
2020/12/12 02:57:32;;;;;;;;;;;;;;;-0.63;100.00;90923.34;1063714;55;20639;-84
2020/12/12 02:58:32;;;;;;;;;;;;;;;-0.67;100.00;90926.00;1065912;55;20622;-83
2020/12/12 02:59:32;;;;;;;;;;;;;;;-0.71;100.00;90917.44;1063892;55;20595;-85
2020/12/12 03:00:33;;;;;;;;;;;;;;;-0.69;100.00;90912.56;1063741;55;20162;-85
2020/12/12 03:01:33;;;;;;;;;;;;;;;-0.78;100.00;90915.69;1068147;55;20157;-85
2020/12/12 03:02:34;;;;;;;;;;;;;;;-0.72;100.00;90902.13;1066002;55;20158;-83
2020/12/12 03:03:34;;;;;;;;;;;;;;;-0.71;100.00;90912.19;1061615;56;20170;-83
2020/12/12 03:04:35;;;;;;;;;;;;;;;-0.79;100.00;90910.81;1063798;55;20162;-83
2020/12/12 03:05:35;;;;;;;;;;;;;;;-0.79;100.00;90910.81;1065829;55;20653;-83
2020/12/12 03:06:38;;;;;;;;;;;;;;;-0.68;100.00;90914.03;1065917;55;20146;-83
2020/12/12 03:07:39;;;;;;;;;;;;;;;-0.74;100.00;90907.03;1066213;55;20161;-84
2020/12/12 03:08:40;;;;;;;;;;;;;;;-0.60;100.00;90912.78;1066029;55;20649;-83
2020/12/12 03:09:40;;;;;;;;;;;;;;;-0.70;100.00;90912.94;1065942;55;20718;-85
2020/12/12 03:10:40;;;;;;;;;;;;;;;-0.69;100.00;90909.94;1068241;55;20180;-84
2020/12/12 03:11:41;;;;;;;;;;;;;;;-0.65;100.00;90915.13;1067896;55;20204;-84
2020/12/12 03:12:41;;;;;;;;;;;;;;;-0.61;100.00;90908.69;1065989;55;20188;-84
2020/12/12 03:13:42;;;;;;;;;;;;;;;-0.67;100.00;90914.78;1063804;55;20232;-85
2020/12/12 03:14:42;;;;;;;;;;;;;;;-0.68;100.00;90911.41;1063848;55;20698;-86
2020/12/12 03:15:42;;;;;;;;;;;;;;;-0.74;100.00;90913.03;1065934;55;20644;-84
2020/12/12 03:16:43;;;;;;;;;;;;;;;-0.66;100.00;90917.03;1068192;55;20188;-84
2020/12/12 03:17:43;;;;;;;;;;;;;;;-0.60;100.00;90915.41;1063793;55;20150;-84
2020/12/12 03:18:44;;;;;;;;;;;;;;;-0.55;100.00;90912.31;1063805;55;20243;-85
2020/12/12 03:19:44;;;;;;;;;;;;;;;-0.58;100.00;90913.13;1061573;56;20154;-84
2020/12/12 03:20:44;;;;;;;;;;;;;;;-0.51;100.00;90918.25;1065631;55;20154;-84
2020/12/12 03:21:45;;;;;;;;;;;;;;;-0.59;100.00;90914.25;1068116;55;20188;-83
2020/12/12 03:22:45;;;;;;;;;;;;;;;-0.67;100.00;90912.91;1065946;55;20177;-85
2020/12/12 03:23:46;;;;;;;;;;;;;;;-0.68;100.00;90915.94;1063822;55;20158;-85
2020/12/12 03:24:46;;;;;;;;;;;;;;;-0.69;100.00;90919.69;1063715;55;20181;-84
2020/12/12 03:25:47;;;;;;;;;;;;;;;-0.65;100.00;90917.75;1063789;55;20158;-84
2020/12/12 03:26:50;;;;;;;;;;;;;;;-0.62;100.00;90919.56;1065805;55;20200;-84
2020/12/12 03:27:50;;;;;;;;;;;;;;;-0.61;100.00;90915.81;1063943;55;20242;-84
2020/12/12 03:28:51;;;;;;;;;;;;;;;-0.62;100.00;90919.56;1063973;55;20235;-83
2020/12/12 03:29:51;;;;;;;;;;;;;;;-0.60;100.00;90914.69;1061768;56;20186;-84
2020/12/12 03:30:52;;;;;;;;;;;;;;;-0.55;100.00;90917.56;1063990;55;20170;-84
2020/12/12 03:31:52;;;;;;;;;;;;;;;-0.40;100.00;90912.81;1068196;55;20312;-85
2020/12/12 03:32:52;;;;;;;;;;;;;;;-0.46;100.00;90914.44;1066089;55;20185;-84
2020/12/12 03:33:53;;;;;;;;;;;;;;;-0.45;100.00;90913.28;1063944;55;20169;-85
2020/12/12 03:34:53;;;;;;;;;;;;;;;-0.50;100.00;90908.50;1068247;55;20176;-83
2020/12/12 03:35:54;;;;;;;;;;;;;;;-0.56;100.00;90916.09;1068314;55;20172;-85
2020/12/12 03:36:54;;;;;;;;;;;;;;;-0.54;100.00;90916.44;1068018;55;20629;-84
2020/12/12 03:37:55;;;;;;;;;;;;;;;-0.52;100.00;90919.41;1066097;55;20161;-84
2020/12/12 03:38:55;;;;;;;;;;;;;;;-0.54;100.00;90911.19;1061717;55;20200;-84
2020/12/12 03:39:56;;;;;;;;;;;;;;;-0.58;100.00;90910.50;1061683;56;20225;-85
2020/12/12 03:40:56;;;;;;;;;;;;;;;-0.55;100.00;90909.69;1063982;55;20166;-84
2020/12/12 03:41:57;;;;;;;;;;;;;;;-0.56;100.00;90910.84;1066128;55;20158;-84
2020/12/12 03:42:57;;;;;;;;;;;;;;;-0.52;100.00;90916.78;1066176;55;20178;-84
2020/12/12 03:43:58;;;;;;;;;;;;;;;-0.49;100.00;90912.59;1068405;55;20203;-84
2020/12/12 03:44:58;;;;;;;;;;;;;;;-0.56;100.00;90912.75;1066255;55;20153;-83
2020/12/12 03:46:02;;;;;;;;;;;;;;;-0.55;100.00;90909.69;1066223;55;20169;-84
2020/12/12 03:47:02;;;;;;;;;;;;;;;-0.57;100.00;90913.84;1066237;55;20706;-85
2020/12/12 03:48:04;;;;;;;;;;;;;;;-0.56;100.00;90918.72;1066320;55;20236;-85
2020/12/12 03:49:05;;;;;;;;;;;;;;;-0.60;100.00;90915.41;1066302;55;20162;-84
2020/12/12 03:50:05;;;;;;;;;;;;;;;-0.59;100.00;90910.91;1065751;55;20201;-83
2020/12/12 03:51:08;;;;;;;;;;;;;;;-0.59;100.00;90916.16;1066261;55;20289;-82
2020/12/12 03:52:08;;;;;;;;;;;;;;;-0.54;100.00;90918.31;1063901;55;20162;-84
2020/12/12 03:53:09;;;;;;;;;;;;;;;-0.64;100.00;90914.00;1064003;55;20275;-85
2020/12/12 03:54:11;;;;;;;;;;;;;;;-0.53;100.00;90925.81;1066102;55;20173;-85
2020/12/12 03:55:13;;;;;;;;;;;;;;;-0.46;100.00;90913.69;1065978;55;20214;-85
2020/12/12 03:56:14;;;;;;;;;;;;;;;-0.49;100.00;90923.09;1065976;55;20164;-85
2020/12/12 03:57:15;;;;;;;;;;;;;;;-0.51;100.00;90922.78;1063877;55;20634;-84
2020/12/12 03:58:16;;;;;;;;;;;;;;;-0.46;100.00;90918.94;1063906;55;20192;-84
2020/12/12 03:59:17;;;;;;;;;;;;;;;-0.54;100.00;90923.56;1065968;55;20150;-83
2020/12/12 04:00:17;;;;;;;;;;;;;;;-0.53;100.00;90925.03;1066054;55;20652;-85
2020/12/12 04:01:18;;;;;;;;;;;;;;;-0.46;100.00;90918.94;1066258;55;20185;-85
2020/12/12 04:02:19;;;;;;;;;;;;;;;-0.49;100.00;90920.47;1066217;55;20232;-84
2020/12/12 04:03:19;;;;;;;;;;;;;;;-0.51;100.00;90925.41;1066189;55;20157;-85
2020/12/12 04:04:20;;;;;;;;;;;;;;;-0.53;100.00;90919.78;1066074;55;20578;-83
2020/12/12 04:05:20;;;;;;;;;;;;;;;-0.55;100.00;90922.09;1063906;55;20263;-85
2020/12/12 04:06:21;;;;;;;;;;;;;;;-0.49;100.00;90919.72;1068169;55;20157;-84
2020/12/12 04:07:22;;;;;;;;;;;;;;;-0.54;100.00;90920.94;1068132;55;20569;-84
2020/12/12 04:08:22;;;;;;;;;;;;;;;-0.49;100.00;90912.59;1065996;55;20243;-84
2020/12/12 04:09:23;;;;;;;;;;;;;;;-0.51;100.00;90914.91;1068132;55;20164;-84
2020/12/12 04:10:23;;;;;;;;;;;;;;;-0.59;100.00;90922.13;1070466;55;20179;-85
2020/12/12 04:11:23;;;;;;;;;;;;;;;-0.61;100.00;90913.19;1066048;55;20161;-85
2020/12/12 04:12:24;;;;;;;;;;;;;;;-0.59;100.00;90918.78;1063735;55;20176;-85
2020/12/12 04:13:24;;;;;;;;;;;;;;;-0.59;100.00;90919.50;1064007;55;20691;-84
2020/12/12 04:14:25;;;;;;;;;;;;;;;-0.57;100.00;90921.72;1068183;55;20242;-85
2020/12/12 04:15:26;;;;;;;;;;;;;;;-0.69;100.00;90917.81;1065957;55;20162;-86
2020/12/12 04:16:27;;;;;;;;;;;;;;;-0.67;100.00;90933.88;1061590;56;20162;-83
2020/12/12 04:17:29;;;;;;;;;;;;;;;-0.67;100.00;90931.25;1064066;55;20222;-83
2020/12/12 04:18:30;;;;;;;;;;;;;;;-0.72;100.00;90920.47;1064050;55;20162;-84
2020/12/12 04:19:30;;;;;;;;;;;;;;;-0.69;100.00;90924.94;1063974;55;20177;-85
2020/12/12 04:20:31;;;;;;;;;;;;;;;-0.75;100.00;90932.50;1061692;56;20174;-84
2020/12/12 04:21:31;;;;;;;;;;;;;;;-0.79;100.00;90926.56;1063848;55;20172;-84
2020/12/12 04:22:31;;;;;;;;;;;;;;;-0.75;100.00;90919.38;1063950;55;20177;-83
2020/12/12 04:23:32;;;;;;;;;;;;;;;-0.77;100.00;90929.53;1063800;55;20146;-83
2020/12/12 04:24:32;;;;;;;;;;;;;;;-0.73;100.00;90929.50;1063877;55;20154;-84
2020/12/12 04:25:33;;;;;;;;;;;;;;;-0.77;100.00;90930.28;1063774;55;20150;-84
2020/12/12 04:26:34;;;;;;;;;;;;;;;-0.78;100.00;90928.81;1066071;55;20274;-83
2020/12/12 04:27:34;;;;;;;;;;;;;;;-0.76;100.00;90931.03;1065923;55;20153;-85
2020/12/12 04:28:35;;;;;;;;;;;;;;;-0.73;100.00;90924.25;1066095;55;20201;-83
2020/12/12 04:29:35;;;;;;;;;;;;;;;-0.69;100.00;90928.31;1063829;55;20165;-84
2020/12/12 04:30:36;;;;;;;;;;;;;;;-0.70;100.00;90926.06;1063872;55;20162;-84
2020/12/12 04:31:36;;;;;;;;;;;;;;;-0.71;100.00;90930.56;1065898;55;20145;-85
2020/12/12 04:32:37;;;;;;;;;;;;;;;-0.74;100.00;90920.88;1063682;55;20150;-84
2020/12/12 04:33:37;;;;;;;;;;;;;;;-0.72;100.00;90923.84;1065834;55;20169;-86
2020/12/12 04:34:38;;;;;;;;;;;;;;;-0.71;100.00;90930.56;1064034;55;20185;-85
2020/12/12 04:35:38;;;;;;;;;;;;;;;-0.70;100.00;90932.06;1063765;55;20189;-84
2020/12/12 04:36:38;;;;;;;;;;;;;;;-0.70;100.00;90924.19;1068165;55;20157;-83
2020/12/12 04:37:39;;;;;;;;;;;;;;;-0.72;100.00;90923.84;1066111;55;20170;-84
2020/12/12 04:38:39;;;;;;;;;;;;;;;-0.76;100.00;90923.91;1061831;56;20182;-84
2020/12/12 04:39:40;;;;;;;;;;;;;;;-0.76;100.00;90923.91;1063865;55;20239;-84
2020/12/12 04:40:40;;;;;;;;;;;;;;;-0.76;100.00;90923.16;1063696;55;20150;-84
2020/12/12 04:41:41;;;;;;;;;;;;;;;-0.79;100.00;90927.34;1063868;55;20259;-83
2020/12/12 04:42:42;;;;;;;;;;;;;;;-0.74;100.00;90928.03;1063888;55;20185;-84
2020/12/12 04:43:43;;;;;;;;;;;;;;;-0.70;100.00;90923.44;1068069;55;20168;-84
2020/12/12 04:44:44;;;;;;;;;;;;;;;-0.64;100.00;90927.09;1067998;55;20261;-85
2020/12/12 04:45:46;;;;;;;;;;;;;;;-0.62;100.00;90935.31;1066087;55;20643;-83
2020/12/12 04:46:47;;;;;;;;;;;;;;;-0.71;100.00;90930.56;1065936;55;20326;-84
2020/12/12 04:47:50;;;;;;;;;;;;;;;-0.71;100.00;90927.94;1063901;55;20182;-84
2020/12/12 04:48:50;;;;;;;;;;;;;;;-0.70;100.00;90932.06;1066004;55;20609;-84
2020/12/12 04:49:51;;;;;;;;;;;;;;;-0.67;100.00;90933.88;1067823;55;20164;-84
2020/12/12 04:50:53;;;;;;;;;;;;;;;-0.68;100.00;90937.66;1070474;55;20180;-88
2020/12/12 04:51:55;;;;;;;;;;;;;;;-0.57;100.00;90940.09;1068303;55;20176;-85
2020/12/12 04:53:10;;;;;;;;;;;;;;;-0.62;100.00;90938.66;1063714;55;20181;-83
2020/12/12 04:54:11;;;;;;;;;;;;;;;-0.61;100.00;90934.94;1064807;55;20185;-88
2020/12/12 04:55:11;;;;;;;;;;;;;;;-0.64;100.00;90935.72;1065907;55;20166;-84
2020/12/12 04:56:18;;;;;;;;;;;;;;;-0.62;100.00;90937.94;1065604;55;20180;-86
2020/12/12 04:57:19;;;;;;;;;;;;;;;-0.63;100.00;90936.44;1066058;55;21055;-84
2020/12/12 04:58:21;;;;;;;;;;;;;;;-0.57;100.00;90935.59;1065851;55;20169;-85
2020/12/12 04:59:22;;;;;;;;;;;;;;;-0.59;100.00;90942.38;1064063;55;20338;-83
2020/12/12 05:00:24;;;;;;;;;;;;;;;-0.64;100.00;90946.22;1064000;55;20188;-83
2020/12/12 05:01:24;;;;;;;;;;;;;;;-0.58;100.00;90944.59;1065981;55;20180;-86
2020/12/12 05:02:25;;;;;;;;;;;;;;;-0.54;100.00;90939.31;1066217;55;20180;-86
2020/12/12 05:03:27;;;;;;;;;;;;;;;-0.55;100.00;90943.81;1066064;55;20238;-84
2020/12/12 05:04:27;;;;;;;;;;;;;;;-0.58;100.00;90947.22;1066022;55;20161;-84
2020/12/12 05:05:28;;;;;;;;;;;;;;;-0.57;100.00;90948.72;1063901;55;20196;-85
2020/12/12 05:06:29;;;;;;;;;;;;;;;-0.49;100.00;90943.34;1066125;55;20193;-84
2020/12/12 05:07:30;;;;;;;;;;;;;;;-0.44;100.00;90942.88;1065993;55;20165;-84
2020/12/12 05:08:30;;;;;;;;;;;;;;;-0.53;100.00;90946.78;1068326;55;20148;-85
2020/12/12 05:09:31;;;;;;;;;;;;;;;-0.55;100.00;90945.69;1066077;55;20157;-84
2020/12/12 05:10:41;;;;;;;;;;;;;;;-0.53;100.00;90951.28;1063792;55;20223;-85
2020/12/12 05:11:46;;;;;;;;;;;;;;;-0.55;100.00;90948.31;1064535;55;20196;-85
2020/12/12 05:12:46;;;;;;;;;;;;;;;-0.61;100.00;90942.06;1066151;55;20224;-85